createdAt,value
2023-05-19T00:00:51.095Z,35.56
2023-05-19T00:01:50.709Z,35.55
2023-05-19T00:02:50.878Z,35.57
2023-05-19T00:03:50.813Z,35.55
2023-05-19T00:04:50.861Z,35.54
2023-05-19T00:05:50.897Z,35.59
2023-05-19T00:06:50.999Z,35.60
2023-05-19T00:07:50.967Z,35.57
2023-05-19T00:08:51.032Z,35.57
2023-05-19T00:09:51.014Z,35.59
2023-05-19T00:10:51.023Z,35.57
2023-05-19T00:11:51.067Z,35.56
2023-05-19T00:12:53.695Z,35.58
2023-05-19T00:13:51.077Z,35.55
2023-05-19T00:14:51.080Z,35.55
2023-05-19T00:15:51.153Z,35.54
2023-05-19T00:16:51.120Z,35.54
2023-05-19T00:17:51.133Z,35.59
2023-05-19T00:18:51.135Z,35.55
2023-05-19T00:19:51.113Z,35.56
2023-05-19T00:20:51.013Z,35.58
2023-05-19T00:21:51.017Z,35.58
2023-05-19T00:22:51.039Z,35.58
2023-05-19T00:23:51.011Z,35.57
2023-05-19T00:24:51.041Z,35.59
2023-05-19T00:25:51.031Z,35.59
2023-05-19T00:26:50.992Z,35.59
2023-05-19T00:27:51.003Z,35.56
2023-05-19T00:28:50.987Z,35.59
2023-05-19T00:29:51.001Z,35.59
2023-05-19T00:30:51.028Z,35.58
2023-05-19T00:31:50.992Z,35.59
2023-05-19T00:32:51.028Z,35.59
2023-05-19T00:33:50.995Z,35.58
2023-05-19T00:34:50.944Z,35.59
2023-05-19T00:35:50.926Z,35.57
2023-05-19T00:36:50.933Z,35.60
2023-05-19T00:37:50.906Z,35.59
2023-05-19T00:38:50.913Z,35.60
2023-05-19T00:39:50.916Z,35.60
2023-05-19T00:40:50.887Z,35.60
2023-05-19T00:41:50.933Z,35.61
2023-05-19T00:42:50.889Z,35.61
2023-05-19T00:43:50.877Z,35.62
2023-05-19T00:44:50.898Z,35.64
2023-05-19T00:45:50.857Z,35.65
2023-05-19T00:46:50.957Z,35.62
2023-05-19T00:47:50.833Z,35.65
2023-05-19T00:48:50.912Z,35.62
2023-05-19T00:49:50.894Z,35.63
2023-05-19T00:50:50.826Z,35.65
2023-05-19T00:51:50.902Z,35.63
2023-05-19T00:52:50.827Z,35.63
2023-05-19T00:53:50.810Z,35.60
2023-05-19T00:54:50.819Z,35.64
2023-05-19T00:55:50.844Z,35.63
2023-05-19T00:56:50.799Z,35.63
2023-05-19T00:57:50.765Z,35.60
2023-05-19T00:58:50.776Z,35.61
2023-05-19T00:59:50.751Z,35.63
2023-05-19T01:00:50.828Z,35.63
2023-05-19T01:01:50.810Z,35.62
2023-05-19T01:02:50.911Z,35.61
2023-05-19T01:03:50.983Z,35.62
2023-05-19T01:04:50.939Z,35.62
2023-05-19T01:05:50.931Z,35.64
2023-05-19T01:06:50.951Z,35.62
2023-05-19T01:07:51.007Z,35.64
2023-05-19T01:08:51.051Z,35.64
2023-05-19T01:09:51.123Z,35.63
2023-05-19T01:10:51.159Z,35.61
2023-05-19T01:11:51.168Z,35.65
2023-05-19T01:12:51.200Z,35.61
2023-05-19T01:13:51.248Z,35.61
2023-05-19T01:14:51.305Z,35.64
2023-05-19T01:15:51.322Z,35.63
2023-05-19T01:16:51.472Z,35.61
2023-05-19T01:17:51.453Z,35.63
2023-05-19T01:18:51.535Z,35.60
2023-05-19T01:19:51.500Z,35.64
2023-05-19T01:20:51.556Z,35.63
2023-05-19T01:21:51.638Z,35.64
2023-05-19T01:22:51.663Z,35.64
2023-05-19T01:23:51.692Z,35.64
2023-05-19T01:24:51.731Z,35.62
2023-05-19T01:25:51.777Z,35.64
2023-05-19T01:26:51.856Z,35.63
2023-05-19T01:27:51.872Z,35.61
2023-05-19T01:28:51.920Z,35.62
2023-05-19T01:29:51.924Z,35.64
2023-05-19T01:30:51.976Z,35.63
2023-05-19T01:31:52.054Z,35.63
2023-05-19T01:32:52.133Z,35.61
2023-05-19T01:33:52.130Z,35.61
2023-05-19T01:34:52.224Z,35.63
2023-05-19T01:35:52.218Z,35.60
2023-05-19T01:36:52.264Z,35.63
2023-05-19T01:37:52.359Z,35.60
2023-05-19T01:38:52.358Z,35.62
2023-05-19T01:39:52.388Z,35.64
2023-05-19T01:40:52.471Z,35.62
2023-05-19T01:41:52.486Z,35.63
2023-05-19T01:42:52.516Z,35.65
2023-05-19T01:43:52.555Z,35.65
2023-05-19T01:44:52.633Z,35.67
2023-05-19T01:45:52.775Z,35.65
2023-05-19T01:46:52.662Z,35.67
2023-05-19T01:47:52.772Z,35.69
2023-05-19T01:48:52.785Z,35.67
2023-05-19T01:49:52.836Z,35.69
2023-05-19T01:50:52.877Z,35.69
2023-05-19T01:51:52.917Z,35.68
2023-05-19T01:52:52.959Z,35.68
2023-05-19T01:53:52.997Z,35.70
2023-05-19T01:54:53.077Z,35.69
2023-05-19T01:55:53.076Z,35.68
2023-05-19T01:56:53.132Z,35.67
2023-05-19T01:57:53.199Z,35.68
2023-05-19T01:58:53.227Z,35.65
2023-05-19T01:59:53.246Z,35.63
2023-05-19T02:00:53.418Z,35.68
2023-05-19T02:01:53.502Z,35.67
2023-05-19T02:02:53.476Z,35.68
2023-05-19T02:03:53.572Z,35.65
2023-05-19T02:04:53.528Z,35.69
2023-05-19T02:05:53.562Z,35.67
2023-05-19T02:06:53.592Z,35.71
2023-05-19T02:07:53.689Z,35.68
2023-05-19T02:08:53.680Z,35.68
2023-05-19T02:09:53.716Z,35.68
2023-05-19T02:10:53.809Z,35.68
2023-05-19T02:11:53.844Z,35.69
2023-05-19T02:12:53.945Z,35.68
2023-05-19T02:13:53.921Z,35.68
2023-05-19T02:14:53.975Z,35.68
2023-05-19T02:15:54.046Z,35.66
2023-05-19T02:16:54.084Z,35.67
2023-05-19T02:17:54.172Z,35.67
2023-05-19T02:18:54.242Z,35.67
2023-05-19T02:19:54.213Z,35.67
2023-05-19T02:20:54.271Z,35.67
2023-05-19T02:21:54.297Z,35.66
2023-05-19T02:22:54.371Z,35.68
2023-05-19T02:23:54.437Z,35.66
2023-05-19T02:24:54.511Z,35.66
2023-05-19T02:25:54.645Z,35.66
2023-05-19T02:26:54.607Z,35.69
2023-05-19T02:27:54.650Z,35.69
2023-05-19T02:28:54.735Z,35.68
2023-05-19T02:29:54.741Z,35.68
2023-05-19T02:30:54.802Z,35.67
2023-05-19T02:31:55.018Z,35.71
2023-05-19T02:32:54.949Z,35.68
2023-05-19T02:33:54.975Z,35.67
2023-05-19T02:34:55.026Z,35.66
2023-05-19T02:35:55.103Z,35.66
2023-05-19T02:36:55.162Z,35.64
2023-05-19T02:37:55.214Z,35.66
2023-05-19T02:38:55.249Z,35.64
2023-05-19T02:39:55.345Z,35.65
2023-05-19T02:40:55.362Z,35.68
2023-05-19T02:41:55.440Z,35.67
2023-05-19T02:42:55.448Z,35.67
2023-05-19T02:43:55.524Z,35.66
2023-05-19T02:44:55.567Z,35.64
2023-05-19T02:45:55.590Z,35.66
2023-05-19T02:46:55.702Z,35.67
2023-05-19T02:47:55.754Z,35.69
2023-05-19T02:48:55.796Z,35.66
2023-05-19T02:49:55.830Z,35.65
2023-05-19T02:50:55.862Z,35.64
2023-05-19T02:51:55.948Z,35.70
2023-05-19T02:52:56.007Z,35.68
2023-05-19T02:53:56.019Z,35.70
2023-05-19T02:54:56.052Z,35.71
2023-05-19T02:55:56.151Z,35.71
2023-05-19T02:56:56.208Z,35.73
2023-05-19T02:57:56.228Z,35.70
2023-05-19T02:58:56.268Z,35.72
2023-05-19T02:59:56.306Z,35.73
2023-05-19T03:00:56.408Z,35.70
2023-05-19T03:01:56.459Z,35.70
2023-05-19T03:02:56.492Z,35.73
2023-05-19T03:03:56.597Z,35.69
2023-05-19T03:04:56.579Z,35.68
2023-05-19T03:05:56.679Z,35.69
2023-05-19T03:06:56.668Z,35.67
2023-05-19T03:07:56.697Z,35.69
2023-05-19T03:08:56.792Z,35.69
2023-05-19T03:09:56.844Z,35.67
2023-05-19T03:10:56.902Z,35.68
2023-05-19T03:11:56.942Z,35.68
2023-05-19T03:12:56.973Z,35.68
2023-05-19T03:13:57.098Z,35.68
2023-05-19T03:14:57.100Z,35.67
2023-05-19T03:15:57.209Z,35.70
2023-05-19T03:16:57.355Z,35.68
2023-05-19T03:17:57.449Z,35.67
2023-05-19T03:18:57.379Z,35.68
2023-05-19T03:19:57.397Z,35.68
2023-05-19T03:20:57.453Z,35.68
2023-05-19T03:21:57.492Z,35.67
2023-05-19T03:22:57.589Z,35.68
2023-05-19T03:23:57.656Z,35.70
2023-05-19T03:24:57.662Z,35.70
2023-05-19T03:25:57.707Z,35.66
2023-05-19T03:26:57.748Z,35.68
2023-05-19T03:27:57.832Z,35.69
2023-05-19T03:28:57.859Z,35.70
2023-05-19T03:29:57.919Z,35.69
2023-05-19T03:30:57.950Z,35.68
2023-05-19T03:31:57.989Z,35.67
2023-05-19T03:32:58.114Z,35.69
2023-05-19T03:33:58.146Z,35.70
2023-05-19T03:34:58.227Z,35.69
2023-05-19T03:35:58.214Z,35.70
2023-05-19T03:36:58.358Z,35.68
2023-05-19T03:37:58.344Z,35.69
2023-05-19T03:38:58.429Z,35.70
2023-05-19T03:39:58.462Z,35.69
2023-05-19T03:40:58.562Z,35.69
2023-05-19T03:41:58.562Z,35.68
2023-05-19T03:42:58.634Z,35.68
2023-05-19T03:43:58.654Z,35.66
2023-05-19T03:44:58.741Z,35.67
2023-05-19T03:45:58.814Z,35.67
2023-05-19T03:46:58.808Z,35.67
2023-05-19T03:47:58.837Z,35.64
2023-05-19T03:48:58.911Z,35.62
2023-05-19T03:49:58.931Z,35.63
2023-05-19T03:50:59.011Z,35.62
2023-05-19T03:51:59.087Z,35.63
2023-05-19T03:52:59.135Z,35.59
2023-05-19T03:53:59.170Z,35.58
2023-05-19T03:54:59.199Z,35.54
2023-05-19T03:55:59.245Z,35.48
2023-05-19T03:56:59.317Z,35.45
2023-05-19T03:57:59.342Z,35.38
2023-05-19T03:58:59.396Z,35.34
2023-05-19T03:59:59.436Z,35.34
2023-05-19T04:00:59.466Z,35.35
2023-05-19T04:01:59.538Z,35.38
2023-05-19T04:02:59.614Z,35.39
2023-05-19T04:03:59.595Z,35.34
2023-05-19T04:04:59.662Z,35.32
2023-05-19T04:05:59.695Z,35.34
2023-05-19T04:06:59.725Z,35.31
2023-05-19T04:07:59.827Z,35.32
2023-05-19T04:08:59.865Z,35.31
2023-05-19T04:09:59.912Z,35.29
2023-05-19T04:10:59.973Z,35.28
2023-05-19T04:12:00.042Z,35.26
2023-05-19T04:13:00.071Z,35.26
2023-05-19T04:14:00.133Z,35.23
2023-05-19T04:15:00.140Z,35.23
2023-05-19T04:16:00.197Z,35.22
2023-05-19T04:17:00.144Z,35.18
2023-05-19T04:18:00.193Z,35.17
2023-05-19T04:19:00.145Z,35.11
2023-05-19T04:20:00.140Z,35.01
2023-05-19T04:21:00.194Z,34.94
2023-05-19T04:22:00.120Z,34.79
2023-05-19T04:23:00.147Z,34.57
2023-05-19T04:24:00.199Z,34.43
2023-05-19T04:25:00.300Z,34.50
2023-05-19T04:26:00.307Z,34.55
2023-05-19T04:27:00.339Z,34.62
2023-05-19T04:28:00.392Z,34.65
2023-05-19T04:29:00.400Z,34.67
2023-05-19T04:30:00.397Z,34.70
2023-05-19T04:31:00.516Z,34.69
2023-05-19T04:32:00.446Z,34.74
2023-05-19T04:33:00.504Z,34.79
2023-05-19T04:34:00.544Z,34.80
2023-05-19T04:35:00.592Z,34.82
2023-05-19T04:36:00.710Z,34.82
2023-05-19T04:37:00.772Z,34.81
2023-05-19T04:38:00.795Z,34.80
2023-05-19T04:39:00.872Z,34.75
2023-05-19T04:40:00.895Z,34.73
2023-05-19T04:41:00.949Z,34.72
2023-05-19T04:42:00.995Z,34.71
2023-05-19T04:43:01.061Z,34.68
2023-05-19T04:44:01.123Z,34.65
2023-05-19T04:45:01.123Z,34.64
2023-05-19T04:46:01.152Z,34.65
2023-05-19T04:47:01.240Z,34.62
2023-05-19T04:48:01.224Z,34.63
2023-05-19T04:49:01.328Z,34.61
2023-05-19T04:50:01.251Z,34.62
2023-05-19T04:51:01.266Z,34.61
2023-05-19T04:52:01.386Z,34.65
2023-05-19T04:53:01.348Z,34.63
2023-05-19T04:54:01.422Z,34.63
2023-05-19T04:55:01.418Z,34.63
2023-05-19T04:56:01.457Z,34.65
2023-05-19T04:57:01.466Z,34.65
2023-05-19T04:58:01.466Z,34.64
2023-05-19T04:59:01.484Z,34.69
2023-05-19T05:00:01.524Z,34.66
2023-05-19T05:01:01.601Z,34.69
2023-05-19T05:02:01.689Z,34.68
2023-05-19T05:03:01.683Z,34.67
2023-05-19T05:04:01.702Z,34.68
2023-05-19T05:05:01.731Z,34.69
2023-05-19T05:06:01.726Z,34.69
2023-05-19T05:07:01.800Z,34.72
2023-05-19T05:08:01.774Z,34.72
2023-05-19T05:09:01.785Z,34.74
2023-05-19T05:10:01.831Z,34.74
2023-05-19T05:11:01.843Z,34.75
2023-05-19T05:12:01.904Z,34.78
2023-05-19T05:13:01.981Z,34.82
2023-05-19T05:14:01.924Z,34.80
2023-05-19T05:15:02.009Z,34.82
2023-05-19T05:16:02.048Z,34.81
2023-05-19T05:17:01.997Z,34.82
2023-05-19T05:18:02.194Z,34.83
2023-05-19T05:19:02.094Z,34.82
2023-05-19T05:20:02.128Z,34.83
2023-05-19T05:21:02.129Z,34.84
2023-05-19T05:22:02.136Z,34.81
2023-05-19T05:23:02.212Z,34.84
2023-05-19T05:24:02.202Z,34.83
2023-05-19T05:25:02.262Z,34.85
2023-05-19T05:26:02.237Z,34.86
2023-05-19T05:27:02.331Z,34.87
2023-05-19T05:28:02.336Z,34.85
2023-05-19T05:29:02.337Z,34.84
2023-05-19T05:30:02.447Z,34.85
2023-05-19T05:31:02.438Z,34.83
2023-05-19T05:32:02.474Z,34.84
2023-05-19T05:33:02.623Z,34.83
2023-05-19T05:34:02.535Z,34.85
2023-05-19T05:35:02.565Z,34.81
2023-05-19T05:36:02.616Z,34.82
2023-05-19T05:37:02.616Z,34.79
2023-05-19T05:38:02.657Z,34.78
2023-05-19T05:39:02.674Z,34.77
2023-05-19T05:40:02.671Z,34.78
2023-05-19T05:41:02.679Z,34.75
2023-05-19T05:42:02.679Z,34.75
2023-05-19T05:43:02.707Z,34.73
2023-05-19T05:44:02.717Z,34.72
2023-05-19T05:45:02.754Z,34.72
2023-05-19T05:46:02.965Z,34.71
2023-05-19T05:47:02.769Z,34.69
2023-05-19T05:48:02.829Z,34.70
2023-05-19T05:49:02.847Z,34.72
2023-05-19T05:50:02.850Z,34.72
2023-05-19T05:51:02.845Z,34.71
2023-05-19T05:52:06.409Z,34.68
2023-05-19T05:53:02.863Z,34.69
2023-05-19T05:54:02.864Z,34.70
2023-05-19T05:55:02.858Z,34.67
2023-05-19T05:56:02.840Z,34.66
2023-05-19T05:57:02.833Z,34.64
2023-05-19T05:58:02.857Z,34.65
2023-05-19T05:59:02.802Z,34.64
2023-05-19T06:00:02.788Z,34.65
2023-05-19T06:01:02.778Z,34.64
2023-05-19T06:02:02.828Z,34.64
2023-05-19T06:03:02.885Z,34.65
2023-05-19T06:04:02.784Z,34.63
2023-05-19T06:05:02.773Z,34.62
2023-05-19T06:06:02.795Z,34.67
2023-05-19T06:07:02.759Z,34.64
2023-05-19T06:08:02.783Z,34.64
2023-05-19T06:09:02.779Z,34.64
2023-05-19T06:10:02.736Z,34.64
2023-05-19T06:11:02.720Z,34.60
2023-05-19T06:12:02.726Z,34.60
2023-05-19T06:13:02.693Z,34.59
2023-05-19T06:14:02.704Z,34.49
2023-05-19T06:15:02.675Z,34.40
2023-05-19T06:16:02.718Z,34.35
2023-05-19T06:17:02.729Z,34.28
2023-05-19T06:18:02.709Z,34.21
2023-05-19T06:19:02.735Z,34.13
2023-05-19T06:20:02.691Z,34.04
2023-05-19T06:21:02.644Z,34.03
2023-05-19T06:22:02.613Z,33.98
2023-05-19T06:23:02.715Z,33.97
2023-05-19T06:24:02.602Z,33.99
2023-05-19T06:25:02.611Z,34.01
2023-05-19T06:26:02.644Z,34.03
2023-05-19T06:27:02.581Z,34.03
2023-05-19T06:28:02.588Z,34.06
2023-05-19T06:29:02.600Z,34.07
2023-05-19T06:30:02.567Z,34.10
2023-05-19T06:31:02.711Z,34.12
2023-05-19T06:32:02.712Z,34.14
2023-05-19T06:33:02.827Z,34.17
2023-05-19T06:34:02.801Z,34.18
2023-05-19T06:35:02.908Z,34.20
2023-05-19T06:36:02.982Z,34.24
2023-05-19T06:37:03.021Z,34.24
2023-05-19T06:38:03.031Z,34.22
2023-05-19T06:39:03.116Z,34.23
2023-05-19T06:40:03.183Z,34.16
2023-05-19T06:41:03.253Z,34.13
2023-05-19T06:42:03.302Z,34.12
2023-05-19T06:43:03.341Z,34.11
2023-05-19T06:44:03.421Z,34.12
2023-05-19T06:45:03.479Z,34.12
2023-05-19T06:46:03.490Z,34.09
2023-05-19T06:47:03.644Z,34.07
2023-05-19T06:48:03.689Z,34.02
2023-05-19T06:49:03.710Z,33.95
2023-05-19T06:50:03.732Z,33.90
2023-05-19T06:51:03.784Z,33.88
2023-05-19T06:52:03.845Z,33.79
2023-05-19T06:53:03.849Z,33.76
2023-05-19T06:54:03.938Z,33.78
2023-05-19T06:55:03.981Z,33.77
2023-05-19T06:56:04.014Z,33.79
2023-05-19T06:57:04.067Z,33.77
2023-05-19T06:58:04.136Z,33.75
2023-05-19T06:59:04.159Z,33.77
2023-05-19T07:00:04.170Z,33.79
2023-05-19T07:01:04.239Z,33.81
2023-05-19T07:02:04.365Z,33.81
2023-05-19T07:03:04.424Z,33.83
2023-05-19T07:04:04.519Z,33.83
2023-05-19T07:05:04.522Z,33.84
2023-05-19T07:06:05.723Z,33.82
2023-05-19T07:07:04.500Z,33.86
2023-05-19T07:08:04.472Z,33.85
2023-05-19T07:09:04.473Z,33.84
2023-05-19T07:10:04.471Z,33.82
2023-05-19T07:11:04.483Z,33.83
2023-05-19T07:12:04.420Z,33.81
2023-05-19T07:13:04.429Z,33.80
2023-05-19T07:14:04.394Z,33.81
2023-05-19T07:15:04.414Z,33.81
2023-05-19T07:16:04.454Z,33.81
2023-05-19T07:17:04.398Z,33.79
2023-05-19T07:18:04.447Z,33.76
2023-05-19T07:19:04.411Z,33.78
2023-05-19T07:20:04.353Z,33.76
2023-05-19T07:21:04.344Z,33.72
2023-05-19T07:22:04.360Z,33.72
2023-05-19T07:23:04.360Z,33.70
2023-05-19T07:24:04.356Z,33.69
2023-05-19T07:25:04.369Z,33.66
2023-05-19T07:26:04.309Z,33.63
2023-05-19T07:27:04.338Z,33.63
2023-05-19T07:28:04.331Z,33.62
2023-05-19T07:29:04.330Z,33.56
2023-05-19T07:30:04.296Z,33.55
2023-05-19T07:31:04.278Z,33.50
2023-05-19T07:32:04.397Z,33.45
2023-05-19T07:33:04.402Z,33.46
2023-05-19T07:34:04.302Z,33.42
2023-05-19T07:35:04.273Z,33.39
2023-05-19T07:36:04.290Z,33.40
2023-05-19T07:37:04.285Z,33.38
2023-05-19T07:38:04.227Z,33.37
2023-05-19T07:39:04.281Z,33.35
2023-05-19T07:40:04.257Z,33.29
2023-05-19T07:41:04.264Z,33.31
2023-05-19T07:42:04.232Z,33.29
2023-05-19T07:43:04.199Z,33.29
2023-05-19T07:44:04.200Z,33.26
2023-05-19T07:45:04.194Z,33.27
2023-05-19T07:46:04.239Z,33.21
2023-05-19T07:47:04.252Z,33.23
2023-05-19T07:48:04.305Z,33.19
2023-05-19T07:49:04.396Z,33.17
2023-05-19T07:50:04.347Z,33.17
2023-05-19T07:51:04.357Z,33.18
2023-05-19T07:52:04.350Z,33.15
2023-05-19T07:53:04.463Z,33.17
2023-05-19T07:54:04.425Z,33.22
2023-05-19T07:55:04.418Z,33.26
2023-05-19T07:56:04.414Z,33.27
2023-05-19T07:57:04.464Z,33.29
2023-05-19T07:58:04.527Z,33.29
2023-05-19T07:59:04.507Z,33.31
2023-05-19T08:00:04.525Z,33.26
2023-05-19T08:01:04.545Z,33.26
2023-05-19T08:02:04.600Z,33.24
2023-05-19T08:03:04.618Z,33.27
2023-05-19T08:04:04.671Z,33.27
2023-05-19T08:05:04.585Z,33.26
2023-05-19T08:06:04.603Z,33.26
2023-05-19T08:07:04.607Z,33.29
2023-05-19T08:08:04.591Z,33.31
2023-05-19T08:09:04.601Z,33.32
2023-05-19T08:10:04.583Z,33.32
2023-05-19T08:11:04.639Z,33.35
2023-05-19T08:12:04.604Z,33.36
2023-05-19T08:13:04.634Z,33.34
2023-05-19T08:14:04.681Z,33.36
2023-05-19T08:15:04.657Z,33.37
2023-05-19T08:16:04.727Z,33.38
2023-05-19T08:17:04.722Z,33.37
2023-05-19T08:18:04.713Z,33.37
2023-05-19T08:19:04.769Z,33.38
2023-05-19T08:20:04.679Z,33.39
2023-05-19T08:21:04.686Z,33.38
2023-05-19T08:22:04.705Z,33.35
2023-05-19T08:23:04.703Z,33.33
2023-05-19T08:24:04.723Z,33.26
2023-05-19T08:25:04.823Z,33.19
2023-05-19T08:26:04.697Z,33.23
2023-05-19T08:27:04.743Z,33.21
2023-05-19T08:28:04.747Z,33.17
2023-05-19T08:29:04.748Z,33.19
2023-05-19T08:30:04.837Z,33.15
2023-05-19T08:31:04.814Z,33.10
2023-05-19T08:32:04.843Z,33.06
2023-05-19T08:33:04.899Z,33.05
2023-05-19T08:34:04.894Z,33.03
2023-05-19T08:35:04.987Z,33.03
2023-05-19T08:36:05.077Z,33.01
2023-05-19T08:37:05.068Z,33.04
2023-05-19T08:38:05.191Z,33.04
2023-05-19T08:39:05.224Z,32.97
2023-05-19T08:40:05.318Z,33.01
2023-05-19T08:41:05.351Z,33.00
2023-05-19T08:42:05.383Z,32.98
2023-05-19T08:43:05.459Z,32.97
2023-05-19T08:44:05.543Z,32.99
2023-05-19T08:45:05.589Z,32.97
2023-05-19T08:46:05.836Z,32.97
2023-05-19T08:47:05.738Z,32.96
2023-05-19T08:48:05.803Z,32.98
2023-05-19T08:49:05.811Z,32.95
2023-05-19T08:50:05.869Z,32.97
2023-05-19T08:51:05.925Z,32.96
2023-05-19T08:52:05.986Z,32.94
2023-05-19T08:53:06.062Z,32.95
2023-05-19T08:54:06.174Z,32.96
2023-05-19T08:55:06.215Z,32.95
2023-05-19T08:56:06.268Z,32.99
2023-05-19T08:57:06.333Z,32.99
2023-05-19T08:58:06.344Z,33.02
2023-05-19T08:59:06.359Z,32.99
2023-05-19T09:00:06.393Z,32.98
2023-05-19T09:01:06.491Z,33.02
2023-05-19T09:02:06.540Z,33.02
2023-05-19T09:04:06.587Z,33.03
2023-05-19T09:05:06.677Z,33.02
2023-05-19T09:06:06.554Z,33.00
2023-05-19T09:07:06.580Z,32.98
2023-05-19T09:08:06.548Z,32.99
2023-05-19T09:09:06.522Z,32.93
2023-05-19T09:10:06.615Z,32.94
2023-05-19T09:11:06.635Z,32.90
2023-05-19T09:12:06.679Z,32.92
2023-05-19T09:13:06.717Z,32.93
2023-05-19T09:14:06.784Z,32.94
2023-05-19T09:15:06.814Z,32.89
2023-05-19T09:16:06.928Z,32.89
2023-05-19T09:17:06.936Z,32.82
2023-05-19T09:18:07.096Z,32.86
2023-05-19T09:19:07.031Z,32.77
2023-05-19T09:20:07.054Z,32.83
2023-05-19T09:21:07.068Z,32.80
2023-05-19T09:22:07.149Z,32.77
2023-05-19T09:23:07.162Z,32.86
2023-05-19T09:24:07.204Z,32.83
2023-05-19T09:25:07.267Z,32.83
2023-05-19T09:26:08.255Z,32.85
2023-05-19T09:27:07.320Z,32.85
2023-05-19T09:28:07.392Z,32.85
2023-05-19T09:29:07.405Z,32.84
2023-05-19T09:30:07.448Z,32.85
2023-05-19T09:31:07.514Z,32.82
2023-05-19T09:32:07.595Z,32.86
2023-05-19T09:33:07.731Z,32.83
2023-05-19T09:34:07.574Z,32.82
2023-05-19T09:35:07.767Z,32.80
2023-05-19T09:36:07.627Z,32.82
2023-05-19T09:37:07.670Z,32.75
2023-05-19T09:38:07.691Z,32.76
2023-05-19T09:39:07.732Z,32.77
2023-05-19T09:40:07.730Z,32.73
2023-05-19T09:41:07.824Z,32.74
2023-05-19T09:42:07.800Z,32.75
2023-05-19T09:43:07.770Z,32.72
2023-05-19T09:44:07.851Z,32.71
2023-05-19T09:45:07.833Z,32.69
2023-05-19T09:46:08.108Z,32.71
2023-05-19T09:47:07.874Z,32.71
2023-05-19T09:48:08.102Z,32.73
2023-05-19T09:49:07.893Z,32.68
2023-05-19T09:50:07.972Z,32.66
2023-05-19T09:51:08.166Z,32.64
2023-05-19T09:52:07.979Z,32.58
2023-05-19T09:53:07.978Z,32.64
2023-05-19T09:54:08.023Z,32.62
2023-05-19T09:55:07.987Z,32.60
2023-05-19T09:56:07.992Z,32.63
2023-05-19T09:57:08.751Z,32.60
2023-05-19T09:58:08.041Z,32.54
2023-05-19T09:59:08.034Z,32.54
2023-05-19T10:00:08.017Z,32.57
2023-05-19T10:01:08.219Z,32.53
2023-05-19T10:02:08.092Z,32.54
2023-05-19T10:03:08.145Z,32.54
2023-05-19T10:04:08.113Z,32.55
2023-05-19T10:05:08.163Z,32.53
2023-05-19T10:06:08.180Z,32.59
2023-05-19T10:07:08.153Z,32.60
2023-05-19T10:08:08.137Z,32.57
2023-05-19T10:09:08.156Z,32.56
2023-05-19T10:10:08.182Z,32.56
2023-05-19T10:11:08.166Z,32.54
2023-05-19T10:12:08.211Z,32.56
2023-05-19T10:13:08.170Z,32.54
2023-05-19T10:14:08.228Z,32.55
2023-05-19T10:15:08.218Z,32.52
2023-05-19T10:16:08.301Z,32.51
2023-05-19T10:17:08.228Z,32.52
2023-05-19T10:18:08.290Z,32.47
2023-05-19T10:19:08.325Z,32.49
2023-05-19T10:20:08.260Z,32.52
2023-05-19T10:21:08.273Z,32.50
2023-05-19T10:22:08.266Z,32.47
2023-05-19T10:23:08.292Z,32.53
2023-05-19T10:24:08.251Z,32.50
2023-05-19T10:25:08.303Z,32.52
2023-05-19T10:26:08.292Z,32.50
2023-05-19T10:27:08.308Z,32.51
2023-05-19T10:28:08.309Z,32.49
2023-05-19T10:29:08.290Z,32.49
2023-05-19T10:30:09.476Z,32.50
2023-05-19T10:31:08.283Z,32.50
2023-05-19T10:32:08.389Z,32.52
2023-05-19T10:33:08.368Z,32.49
2023-05-19T10:34:08.295Z,32.47
2023-05-19T10:35:08.285Z,32.53
2023-05-19T10:36:08.277Z,32.49
2023-05-19T10:37:08.273Z,32.51
2023-05-19T10:38:08.247Z,32.53
2023-05-19T10:39:08.263Z,32.53
2023-05-19T10:40:08.273Z,32.52
2023-05-19T10:41:08.210Z,32.51
2023-05-19T10:42:08.263Z,32.49
2023-05-19T10:43:08.220Z,32.47
2023-05-19T10:44:08.217Z,32.51
2023-05-19T10:45:08.236Z,32.47
2023-05-19T10:46:08.220Z,32.47
2023-05-19T10:47:08.291Z,32.50
2023-05-19T10:48:08.223Z,32.46
2023-05-19T10:49:08.283Z,32.54
2023-05-19T10:50:08.161Z,32.48
2023-05-19T10:51:08.153Z,32.50
2023-05-19T10:52:08.178Z,32.58
2023-05-19T10:53:08.145Z,32.55
2023-05-19T10:54:08.169Z,32.46
2023-05-19T10:55:08.202Z,32.57
2023-05-19T10:56:08.124Z,32.52
2023-05-19T10:57:08.103Z,32.56
2023-05-19T10:58:08.121Z,32.60
2023-05-19T10:59:08.117Z,32.57
2023-05-19T11:00:08.107Z,32.45
2023-05-19T11:01:08.073Z,32.46
2023-05-19T11:02:08.226Z,32.51
2023-05-19T11:03:08.232Z,32.54
2023-05-19T11:04:08.233Z,32.51
2023-05-19T11:05:08.050Z,32.52
2023-05-19T11:06:08.062Z,32.51
2023-05-19T11:07:08.039Z,32.50
2023-05-19T11:08:08.064Z,32.50
2023-05-19T11:09:08.025Z,32.49
2023-05-19T11:10:08.133Z,32.51
2023-05-19T11:11:08.003Z,32.50
2023-05-19T11:12:08.061Z,32.53
2023-05-19T11:13:08.025Z,32.49
2023-05-19T11:14:08.029Z,32.53
2023-05-19T11:15:08.003Z,32.50
2023-05-19T11:16:08.014Z,32.50
2023-05-19T11:17:08.053Z,32.49
2023-05-19T11:18:08.066Z,32.51
2023-05-19T11:19:08.010Z,32.52
2023-05-19T11:20:07.952Z,32.51
2023-05-19T11:21:07.977Z,32.51
2023-05-19T11:22:07.973Z,32.50
2023-05-19T11:23:08.103Z,32.51
2023-05-19T11:24:08.008Z,32.53
2023-05-19T11:25:07.958Z,32.50
2023-05-19T11:26:07.966Z,32.52
2023-05-19T11:27:07.957Z,32.52
2023-05-19T11:28:07.973Z,32.55
2023-05-19T11:29:07.941Z,32.57
2023-05-19T11:30:07.876Z,32.57
2023-05-19T11:31:07.990Z,32.57
2023-05-19T11:32:07.895Z,32.56
2023-05-19T11:33:07.917Z,32.56
2023-05-19T11:34:08.003Z,32.54
2023-05-19T11:35:08.013Z,32.57
2023-05-19T11:36:08.025Z,32.58
2023-05-19T11:37:08.115Z,32.56
2023-05-19T11:38:08.075Z,32.60
2023-05-19T11:39:08.142Z,32.56
2023-05-19T11:40:08.176Z,32.55
2023-05-19T11:41:08.204Z,32.58
2023-05-19T11:42:08.271Z,32.58
2023-05-19T11:43:08.291Z,32.58
2023-05-19T11:44:08.316Z,32.57
2023-05-19T11:45:08.363Z,32.59
2023-05-19T11:46:08.528Z,32.62
2023-05-19T11:47:08.636Z,32.60
2023-05-19T11:48:08.648Z,32.60
2023-05-19T11:49:08.658Z,32.61
2023-05-19T11:50:08.729Z,32.60
2023-05-19T11:51:08.785Z,32.60
2023-05-19T11:52:08.803Z,32.62
2023-05-19T11:53:08.865Z,32.61
2023-05-19T11:54:08.960Z,32.60
2023-05-19T11:55:08.987Z,32.60
2023-05-19T11:56:09.072Z,32.61
2023-05-19T11:57:09.185Z,32.63
2023-05-19T11:58:09.131Z,32.61
2023-05-19T11:59:09.273Z,32.64
2023-05-19T12:00:09.296Z,32.64
2023-05-19T12:01:09.357Z,32.65
2023-05-19T12:02:09.463Z,32.66
2023-05-19T12:03:09.844Z,32.66
2023-05-19T12:04:09.532Z,32.65
2023-05-19T12:05:09.666Z,32.66
2023-05-19T12:06:09.657Z,32.68
2023-05-19T12:07:09.707Z,32.66
2023-05-19T12:08:09.807Z,32.69
2023-05-19T12:09:09.813Z,32.69
2023-05-19T12:10:09.906Z,32.70
2023-05-19T12:11:09.929Z,32.69
2023-05-19T12:12:10.022Z,32.71
2023-05-19T12:13:10.650Z,32.69
2023-05-19T12:14:10.110Z,32.71
2023-05-19T12:15:10.162Z,32.72
2023-05-19T12:16:10.253Z,32.71
2023-05-19T12:17:10.281Z,32.72
2023-05-19T12:18:10.410Z,32.71
2023-05-19T12:19:10.460Z,32.72
2023-05-19T12:20:10.472Z,32.71
2023-05-19T12:21:10.466Z,32.74
2023-05-19T12:22:10.518Z,32.72
2023-05-19T12:23:10.591Z,32.70
2023-05-19T12:24:10.596Z,32.73
2023-05-19T12:25:10.654Z,32.71
2023-05-19T12:26:10.776Z,32.74
2023-05-19T12:27:10.743Z,32.75
2023-05-19T12:28:10.769Z,32.75
2023-05-19T12:29:10.830Z,32.74
2023-05-19T12:30:10.985Z,32.75
2023-05-19T12:31:11.024Z,32.71
2023-05-19T12:32:11.015Z,32.74
2023-05-19T12:33:11.080Z,32.75
2023-05-19T12:34:11.108Z,32.76
2023-05-19T12:35:11.135Z,32.74
2023-05-19T12:36:11.172Z,32.74
2023-05-19T12:37:11.255Z,32.75
2023-05-19T12:38:11.311Z,32.77
2023-05-19T12:39:11.356Z,32.80
2023-05-19T12:40:11.423Z,32.77
2023-05-19T12:41:11.454Z,32.79
2023-05-19T12:42:11.574Z,32.80
2023-05-19T12:43:11.585Z,32.78
2023-05-19T12:44:11.597Z,32.77
2023-05-19T12:45:11.700Z,32.78
2023-05-19T12:46:11.803Z,32.80
2023-05-19T12:47:11.869Z,32.81
2023-05-19T12:48:12.004Z,32.82
2023-05-19T12:49:11.943Z,32.79
2023-05-19T12:50:12.037Z,32.79
2023-05-19T12:51:12.061Z,32.79
2023-05-19T12:52:13.196Z,32.80
2023-05-19T12:53:12.225Z,32.80
2023-05-19T12:54:12.276Z,32.81